createdAt,value
2023-01-30T00:01:04.869Z,35.33
2023-01-30T00:03:31.985Z,33.42
2023-01-30T00:05:59.092Z,32.85
2023-01-30T00:08:26.132Z,33.47
2023-01-30T00:10:53.063Z,33.35
2023-01-30T00:13:20.173Z,32.95
2023-01-30T00:15:48.337Z,33.15
2023-01-30T00:18:15.279Z,30.75
2023-01-30T00:20:42.160Z,31.92
2023-01-30T00:23:09.110Z,29.73
2023-01-30T00:25:36.093Z,31.80
2023-01-30T00:28:03.278Z,30.75
2023-01-30T00:30:30.826Z,29.45
2023-01-30T00:32:59.358Z,28.58
2023-01-30T00:35:28.790Z,29.50
2023-01-30T00:37:59.779Z,31.02
2023-01-30T00:40:28.343Z,31.00
2023-01-30T00:43:14.566Z,31.08
2023-01-30T00:46:02.625Z,29.85
2023-01-30T00:48:29.711Z,30.10
2023-01-30T00:50:56.831Z,30.35
2023-01-30T00:53:24.342Z,29.70
2023-01-30T00:55:52.543Z,30.27
2023-01-30T00:58:21.431Z,30.83
2023-01-30T01:00:49.414Z,31.35
2023-01-30T01:03:16.727Z,31.23
2023-01-30T01:05:44.040Z,29.77
2023-01-30T01:08:14.729Z,31.88
2023-01-30T01:10:42.176Z,29.52
2023-01-30T01:13:10.577Z,31.48
2023-01-30T01:15:37.826Z,30.00
2023-01-30T01:18:06.004Z,31.67
2023-01-30T01:20:33.003Z,34.72
2023-01-30T01:22:59.990Z,34.47
2023-01-30T01:25:27.192Z,35.55
2023-01-30T01:27:55.140Z,34.42
2023-01-30T01:30:22.052Z,33.20
2023-01-30T01:32:49.037Z,34.17
2023-01-30T01:35:16.265Z,33.88
2023-01-30T01:37:43.426Z,34.80
2023-01-30T01:40:37.726Z,33.85
2023-01-30T01:43:18.583Z,34.70
2023-01-30T01:45:48.684Z,34.13
2023-01-30T01:48:27.883Z,36.33
2023-01-30T01:50:59.099Z,34.33
2023-01-30T01:53:32.670Z,32.55
2023-01-30T01:56:01.912Z,32.67
2023-01-30T01:58:36.956Z,35.20
2023-01-30T02:01:04.479Z,36.25
2023-01-30T02:03:37.700Z,35.72
2023-01-30T02:06:07.194Z,35.10
2023-01-30T02:08:45.065Z,35.00
2023-01-30T02:11:37.194Z,33.92
2023-01-30T02:14:06.027Z,32.92
2023-01-30T02:16:32.991Z,33.28
2023-01-30T02:18:59.954Z,33.13
2023-01-30T02:21:34.394Z,32.92
2023-01-30T02:24:13.144Z,31.08
2023-01-30T02:27:08.299Z,30.95
2023-01-30T02:30:02.726Z,31.10
2023-01-30T02:32:42.954Z,31.17
2023-01-30T02:35:31.775Z,31.95
2023-01-30T02:38:24.248Z,30.75
2023-01-30T02:41:02.305Z,31.17
2023-01-30T02:43:39.666Z,32.25
2023-01-30T02:46:19.703Z,31.33
2023-01-30T02:48:57.392Z,28.45
2023-01-30T02:51:29.886Z,31.38
2023-01-30T02:53:57.735Z,30.63
2023-01-30T02:56:25.457Z,28.55
2023-01-30T02:59:07.088Z,26.80
2023-01-30T03:01:43.887Z,29.75
2023-01-30T03:07:40.505Z,28.25
2023-01-30T03:10:26.418Z,29.67
2023-01-30T03:13:32.052Z,29.02
2023-01-30T03:16:06.707Z,28.90
2023-01-30T03:18:33.846Z,29.17
2023-01-30T03:21:06.091Z,30.02
2023-01-30T03:23:33.217Z,28.05
2023-01-30T03:26:02.659Z,27.65
2023-01-30T03:28:30.187Z,26.17
2023-01-30T03:30:58.127Z,27.13
2023-01-30T03:33:25.212Z,27.45
2023-01-30T03:35:53.013Z,27.27
2023-01-30T03:38:20.409Z,27.88
2023-01-30T03:40:50.148Z,27.30
2023-01-30T03:43:17.457Z,27.85
2023-01-30T03:45:44.624Z,28.55
2023-01-30T03:48:11.851Z,27.83
2023-01-30T03:50:38.926Z,29.42
2023-01-30T03:53:06.433Z,27.25
2023-01-30T03:55:33.419Z,26.52
2023-01-30T03:58:00.409Z,28.33
2023-01-30T04:00:31.083Z,27.85
2023-01-30T04:02:59.034Z,28.58
2023-01-30T04:05:26.323Z,27.75
2023-01-30T04:07:58.998Z,27.15
2023-01-30T04:10:27.285Z,27.42
2023-01-30T04:12:54.601Z,26.75
2023-01-30T04:15:22.746Z,25.35
2023-01-30T04:18:10.108Z,27.05
2023-01-30T04:20:42.748Z,26.70
2023-01-30T04:23:09.907Z,26.02
2023-01-30T04:25:36.822Z,26.42
2023-01-30T04:28:07.539Z,26.00
2023-01-30T04:30:37.348Z,26.25
2023-01-30T04:33:27.682Z,26.70
2023-01-30T04:35:59.874Z,26.15
2023-01-30T04:38:28.788Z,25.13
2023-01-30T04:40:57.195Z,26.17
2023-01-30T04:43:27.782Z,25.45
2023-01-30T04:46:13.844Z,25.55
2023-01-30T04:48:42.065Z,25.80
2023-01-30T04:51:10.016Z,24.67
2023-01-30T04:53:38.324Z,24.95
2023-01-30T04:56:05.858Z,24.42
2023-01-30T04:58:32.872Z,25.40
2023-01-30T05:01:20.799Z,23.20
2023-01-30T05:03:55.368Z,23.55
2023-01-30T05:06:23.513Z,22.77
2023-01-30T05:08:53.127Z,24.00
2023-01-30T05:11:22.275Z,22.38
2023-01-30T05:13:49.692Z,22.42
2023-01-30T05:16:17.792Z,23.23
2023-01-30T05:18:45.359Z,21.95
2023-01-30T05:21:15.198Z,22.58
2023-01-30T05:23:42.672Z,22.58
2023-01-30T05:26:11.169Z,22.73
2023-01-30T05:28:38.319Z,20.95
2023-01-30T05:31:13.865Z,21.05
2023-01-30T05:33:41.769Z,21.63
2023-01-30T05:36:14.803Z,21.38
2023-01-30T05:38:44.046Z,22.63
2023-01-30T05:41:13.008Z,22.70
2023-01-30T05:43:40.238Z,21.15
2023-01-30T05:46:09.966Z,20.83
2023-01-30T05:48:36.920Z,21.65
2023-01-30T05:51:04.004Z,21.50
2023-01-30T05:53:37.262Z,21.95
2023-01-30T05:56:05.699Z,20.75
2023-01-30T05:58:33.546Z,21.67
2023-01-30T06:01:05.189Z,20.70
2023-01-30T06:03:32.618Z,22.20
2023-01-30T06:06:02.027Z,20.30
2023-01-30T06:08:29.150Z,21.02
2023-01-30T06:11:04.175Z,20.92
2023-01-30T06:13:31.225Z,20.27
2023-01-30T06:15:58.359Z,21.20
2023-01-30T06:18:25.487Z,21.70
2023-01-30T06:20:53.812Z,21.02
2023-01-30T06:23:23.499Z,22.35
2023-01-30T06:25:51.974Z,22.58
2023-01-30T06:28:20.961Z,22.25
2023-01-30T06:30:48.236Z,23.15
2023-01-30T06:33:15.729Z,23.25
2023-01-30T06:35:43.255Z,22.23
2023-01-30T06:38:11.685Z,22.10
2023-01-30T06:40:38.979Z,22.80
2023-01-30T06:43:06.247Z,21.30
2023-01-30T06:45:33.490Z,22.13
2023-01-30T06:48:00.621Z,21.73
2023-01-30T06:50:28.643Z,22.35
2023-01-30T06:52:56.169Z,22.08
2023-01-30T06:55:25.847Z,21.70
2023-01-30T06:58:03.404Z,21.60
2023-01-30T07:00:31.010Z,22.42
2023-01-30T07:02:58.268Z,21.45
2023-01-30T07:05:25.579Z,22.80
2023-01-30T07:07:52.590Z,21.60
2023-01-30T07:10:19.716Z,22.35
2023-01-30T07:12:48.108Z,21.33
2023-01-30T07:15:15.263Z,21.17
2023-01-30T07:17:42.688Z,22.73
2023-01-30T07:20:10.544Z,21.63
2023-01-30T07:22:37.591Z,21.27
2023-01-30T07:25:05.287Z,22.52
2023-01-30T07:27:32.426Z,22.98
2023-01-30T07:29:59.509Z,21.60
2023-01-30T07:32:26.532Z,20.95
2023-01-30T07:34:53.953Z,21.48
2023-01-30T07:37:21.013Z,21.63
2023-01-30T07:39:47.930Z,22.33
2023-01-30T07:42:15.011Z,22.10
2023-01-30T07:44:41.936Z,22.65
2023-01-30T07:47:09.068Z,22.85
2023-01-30T07:49:36.052Z,22.30
2023-01-30T07:52:03.034Z,22.20
2023-01-30T07:54:30.282Z,23.48
2023-01-30T07:56:57.251Z,23.33
2023-01-30T07:59:24.216Z,24.38
2023-01-30T08:01:51.281Z,22.98
2023-01-30T08:04:18.281Z,22.52
2023-01-30T08:06:45.403Z,24.13
2023-01-30T08:09:12.352Z,23.48
2023-01-30T08:11:39.319Z,24.13
2023-01-30T08:14:06.257Z,24.10
2023-01-30T08:16:34.232Z,24.38
2023-01-30T08:19:01.282Z,22.65
2023-01-30T08:21:28.306Z,23.52
2023-01-30T08:23:55.445Z,24.10
2023-01-30T08:26:22.626Z,22.35
2023-01-30T08:28:49.686Z,26.63
2023-01-30T08:31:17.646Z,23.85
2023-01-30T08:33:44.721Z,24.70
2023-01-30T08:36:11.711Z,25.00
2023-01-30T08:38:38.757Z,24.98
2023-01-30T08:41:08.208Z,24.23
2023-01-30T08:43:35.582Z,24.83
2023-01-30T08:46:03.045Z,23.55
2023-01-30T08:48:39.830Z,25.00
2023-01-30T08:51:14.904Z,25.70
2023-01-30T08:53:41.884Z,25.85
2023-01-30T08:56:08.899Z,25.65
2023-01-30T08:58:35.886Z,27.23
2023-01-30T09:01:07.205Z,27.90
2023-01-30T09:03:34.576Z,26.77
2023-01-30T09:06:01.696Z,25.83
2023-01-30T09:08:28.706Z,28.10
2023-01-30T09:11:04.546Z,24.73
2023-01-30T09:15:59.318Z,25.67
2023-01-30T09:18:26.803Z,27.38
2023-01-30T09:21:03.013Z,26.38
2023-01-30T09:23:30.028Z,27.95
2023-01-30T09:25:56.999Z,29.35
2023-01-30T09:28:24.084Z,28.13
2023-01-30T09:30:51.105Z,29.42
2023-01-30T09:33:20.466Z,27.70
2023-01-30T09:35:50.659Z,30.27
2023-01-30T09:38:18.154Z,29.23
2023-01-30T09:41:00.311Z,28.40
2023-01-30T09:43:46.887Z,28.85
2023-01-30T09:46:19.198Z,28.05
2023-01-30T09:49:09.446Z,27.52
2023-01-30T09:51:48.647Z,28.50
2023-01-30T09:54:22.166Z,29.58
2023-01-30T09:57:21.896Z,28.80
2023-01-30T10:00:34.479Z,30.13
2023-01-30T10:03:11.753Z,27.38
2023-01-30T10:05:47.051Z,26.58
2023-01-30T10:08:23.756Z,25.10
2023-01-30T10:11:12.845Z,23.40
2023-01-30T10:14:05.653Z,24.45
2023-01-30T10:17:03.526Z,24.02
2023-01-30T10:19:59.435Z,22.27
2023-01-30T10:23:00.119Z,22.05
2023-01-30T10:25:36.781Z,24.55
2023-01-30T10:28:32.425Z,25.42
2023-01-30T10:31:14.158Z,24.63
2023-01-30T10:34:02.398Z,23.92
2023-01-30T10:36:56.217Z,21.42
2023-01-30T10:39:36.907Z,22.52
2023-01-30T10:42:12.817Z,20.23
2023-01-30T10:44:42.953Z,22.75
2023-01-30T10:47:46.548Z,22.35
2023-01-30T10:50:16.490Z,20.83
2023-01-30T10:52:53.095Z,19.83
2023-01-30T10:55:36.449Z,16.25
2023-01-30T10:58:40.620Z,17.25
2023-01-30T11:01:14.568Z,16.23
2023-01-30T11:03:50.365Z,17.27
2023-01-30T11:08:46.304Z,17.30
2023-01-30T11:11:32.992Z,18.63
2023-01-30T11:14:08.052Z,16.58
2023-01-30T11:16:43.662Z,17.65
2023-01-30T11:19:20.623Z,17.27
2023-01-30T11:21:51.745Z,16.80
2023-01-30T11:24:28.624Z,17.75
2023-01-30T11:27:09.029Z,16.38
2023-01-30T11:29:39.271Z,17.30
2023-01-30T11:32:24.845Z,17.15
2023-01-30T11:35:06.984Z,17.67
2023-01-30T11:37:47.437Z,17.17
2023-01-30T11:40:38.913Z,18.08
2023-01-30T11:43:12.003Z,18.70
2023-01-30T11:45:44.579Z,17.20
2023-01-30T11:49:09.094Z,17.27
2023-01-30T11:51:24.565Z,16.88
2023-01-30T11:54:00.826Z,18.38
2023-01-30T11:56:48.525Z,16.23
2023-01-30T11:59:21.488Z,15.98
2023-01-30T12:01:48.577Z,16.48
2023-01-30T12:04:15.983Z,15.48
2023-01-30T12:06:43.827Z,16.35
2023-01-30T12:09:33.531Z,17.10
2023-01-30T12:12:00.597Z,16.50
2023-01-30T12:14:41.366Z,15.85
2023-01-30T12:17:35.081Z,16.02
2023-01-30T12:20:23.491Z,15.77
2023-01-30T12:23:02.527Z,15.98
2023-01-30T12:25:43.160Z,15.25
2023-01-30T12:28:37.984Z,15.73
2023-01-30T12:31:08.460Z,16.58
2023-01-30T12:33:36.204Z,14.73
2023-01-30T12:36:24.883Z,14.02
2023-01-30T12:39:20.520Z,15.52
2023-01-30T12:44:50.385Z,14.25
2023-01-30T12:48:10.615Z,13.90
2023-01-30T12:50:43.457Z,12.70
2023-01-30T12:53:30.143Z,13.65
2023-01-30T12:56:23.437Z,13.07
2023-01-30T12:59:15.068Z,13.30
2023-01-30T13:01:50.667Z,11.98
2023-01-30T13:04:17.612Z,13.18
2023-01-30T13:06:58.421Z,11.15
2023-01-30T13:09:47.693Z,11.70
2023-01-30T13:12:42.554Z,12.38
2023-01-30T13:15:36.531Z,12.07
2023-01-30T13:18:28.013Z,11.95
2023-01-30T13:21:00.442Z,11.75
2023-01-30T13:23:43.756Z,11.27
2023-01-30T13:26:16.399Z,11.73
2023-01-30T13:28:51.195Z,12.10
2023-01-30T13:31:24.774Z,11.15
2023-01-30T13:34:04.455Z,11.32
2023-01-30T13:36:42.741Z,12.57
2023-01-30T13:39:33.211Z,13.00
2023-01-30T13:42:02.834Z,12.15
2023-01-30T13:44:31.943Z,11.85
2023-01-30T13:47:18.803Z,11.95
2023-01-30T13:50:03.487Z,11.50
2023-01-30T13:52:42.252Z,12.75
2023-01-30T13:55:30.563Z,11.30
2023-01-30T13:58:32.855Z,11.55
2023-01-30T14:01:00.031Z,11.70
2023-01-30T14:03:30.584Z,11.75
2023-01-30T14:05:59.157Z,11.98
2023-01-30T14:08:46.284Z,11.75
2023-01-30T14:11:34.307Z,12.82
2023-01-30T14:14:23.243Z,12.38
2023-01-30T14:16:53.643Z,11.27
2023-01-30T14:19:20.599Z,10.85
2023-01-30T14:22:24.946Z,11.68
2023-01-30T14:25:22.385Z,12.10
2023-01-30T14:27:52.785Z,11.43
2023-01-30T14:30:32.132Z,11.50
2023-01-30T14:33:01.109Z,12.40
2023-01-30T14:35:30.710Z,11.90
2023-01-30T14:38:21.519Z,11.07
2023-01-30T14:40:58.543Z,11.43
2023-01-30T14:43:25.475Z,11.55
2023-01-30T14:45:54.989Z,11.55
2023-01-30T14:48:44.511Z,10.55
2023-01-30T14:51:31.371Z,10.00
2023-01-30T14:54:20.683Z,10.95
2023-01-30T14:57:00.953Z,11.27
2023-01-30T14:59:46.071Z,12.07
2023-01-30T15:02:12.954Z,11.07
2023-01-30T15:04:43.262Z,9.98
2023-01-30T15:07:27.511Z,11.35
2023-01-30T15:10:00.568Z,10.68
2023-01-30T15:12:36.497Z,11.40
2023-01-30T15:15:40.823Z,11.85
2023-01-30T15:18:39.873Z,11.18
2023-01-30T15:21:32.669Z,10.70
2023-01-30T15:24:27.389Z,10.80
2023-01-30T15:26:57.440Z,10.02
2023-01-30T15:29:41.400Z,10.85
2023-01-30T15:32:18.504Z,10.85
2023-01-30T15:35:10.854Z,10.65
2023-01-30T15:37:48.826Z,10.88
2023-01-30T15:40:16.012Z,10.95
2023-01-30T15:42:53.029Z,10.50
2023-01-30T15:45:28.884Z,10.23
2023-01-30T15:48:23.639Z,10.65
2023-01-30T15:50:57.383Z,10.43
2023-01-30T15:53:29.011Z,10.50
2023-01-30T15:55:56.202Z,10.45
2023-01-30T15:58:24.181Z,11.00
2023-01-30T16:00:54.677Z,12.63
2023-01-30T16:03:27.261Z,10.82
2023-01-30T16:05:56.700Z,12.00
2023-01-30T16:08:29.119Z,12.18
2023-01-30T16:10:56.537Z,12.85
2023-01-30T16:13:24.383Z,11.02
2023-01-30T16:16:07.345Z,10.70
2023-01-30T16:18:38.643Z,11.30
2023-01-30T16:21:17.155Z,11.15
2023-01-30T16:23:55.688Z,11.35
2023-01-30T16:26:23.431Z,10.88
2023-01-30T16:28:51.772Z,10.82
2023-01-30T16:31:19.347Z,11.77
2023-01-30T16:33:53.124Z,10.55
2023-01-30T16:36:20.057Z,10.88
2023-01-30T16:38:48.461Z,12.00
2023-01-30T16:41:39.429Z,11.35
2023-01-30T16:44:24.181Z,13.18
2023-01-30T16:47:11.395Z,12.82
2023-01-30T16:49:47.866Z,12.80
2023-01-30T16:52:30.336Z,11.82
2023-01-30T16:55:00.839Z,11.75
2023-01-30T16:57:44.030Z,13.15
2023-01-30T17:00:14.419Z,13.43
2023-01-30T17:02:42.900Z,12.80
2023-01-30T17:05:25.503Z,12.40
2023-01-30T17:07:54.172Z,11.57
2023-01-30T17:10:39.570Z,11.73
2023-01-30T17:13:30.719Z,12.63
2023-01-30T17:16:19.597Z,12.38
2023-01-30T17:18:47.806Z,11.57
2023-01-30T17:21:15.761Z,13.50
2023-01-30T17:23:46.975Z,12.25
2023-01-30T17:26:15.432Z,12.02
2023-01-30T17:28:42.880Z,12.95
2023-01-30T17:31:14.104Z,13.63
2023-01-30T17:33:41.728Z,12.77
2023-01-30T17:36:24.118Z,13.95
2023-01-30T17:38:51.711Z,14.25
2023-01-30T17:41:21.285Z,13.10
2023-01-30T17:43:49.792Z,12.88
2023-01-30T17:46:18.118Z,13.80
2023-01-30T17:48:45.721Z,14.35
2023-01-30T17:51:14.336Z,13.95
2023-01-30T17:53:41.919Z,15.13
2023-01-30T17:56:32.242Z,14.43
2023-01-30T17:58:59.468Z,14.52
2023-01-30T18:01:26.898Z,14.38
2023-01-30T18:03:53.899Z,14.82
2023-01-30T18:06:20.855Z,13.32
2023-01-30T18:08:47.823Z,13.63
2023-01-30T18:11:15.951Z,14.27
2023-01-30T18:13:43.271Z,14.05
2023-01-30T18:16:23.549Z,14.35
2023-01-30T18:18:50.889Z,12.57
2023-01-30T18:21:18.153Z,13.88
2023-01-30T18:23:45.187Z,13.55
2023-01-30T18:26:12.994Z,14.98
2023-01-30T18:28:40.071Z,15.32
2023-01-30T18:31:07.442Z,14.18
2023-01-30T18:33:34.447Z,14.82
2023-01-30T18:36:13.543Z,14.38
2023-01-30T18:38:40.763Z,13.45
2023-01-30T18:41:15.950Z,13.90
2023-01-30T18:43:43.728Z,15.18
2023-01-30T18:46:14.668Z,14.32
2023-01-30T18:48:42.788Z,15.68
2023-01-30T18:51:12.934Z,15.32
2023-01-30T18:53:40.947Z,15.38
2023-01-30T18:56:09.766Z,15.07
2023-01-30T18:58:36.932Z,14.27
2023-01-30T19:01:17.784Z,15.48
2023-01-30T19:03:44.935Z,16.90
2023-01-30T19:06:14.115Z,15.18
2023-01-30T19:08:45.035Z,15.73
2023-01-30T19:11:33.711Z,15.00
2023-01-30T19:14:01.708Z,17.00
2023-01-30T19:16:30.486Z,14.48
2023-01-30T19:18:58.024Z,15.48
2023-01-30T19:21:25.837Z,16.10
2023-01-30T19:23:53.555Z,15.95
2023-01-30T19:26:22.564Z,17.77
2023-01-30T19:28:49.898Z,17.77
2023-01-30T19:31:20.442Z,17.92
2023-01-30T19:33:53.848Z,18.02
2023-01-30T19:36:22.621Z,17.83
2023-01-30T19:38:50.880Z,17.92
2023-01-30T19:41:24.372Z,17.45
2023-01-30T19:43:52.825Z,16.95
2023-01-30T19:46:20.281Z,18.60
2023-01-30T19:48:48.076Z,17.40
2023-01-30T19:51:21.025Z,17.92
2023-01-30T19:53:53.692Z,17.60
2023-01-30T19:56:22.475Z,16.95
2023-01-30T19:58:52.698Z,17.08
2023-01-30T20:01:21.366Z,19.10
2023-01-30T20:03:48.752Z,19.30
2023-01-30T20:06:19.926Z,20.30
2023-01-30T20:08:50.020Z,18.90
2023-01-30T20:11:19.691Z,20.10
2023-01-30T20:13:46.802Z,18.25
2023-01-30T20:16:20.419Z,19.92
2023-01-30T20:18:49.102Z,20.05
2023-01-30T20:21:20.140Z,19.70
2023-01-30T20:23:48.536Z,18.95
2023-01-30T20:26:21.724Z,21.58
2023-01-30T20:28:49.455Z,20.02
2023-01-30T20:31:20.233Z,19.20
2023-01-30T20:33:48.010Z,18.90
2023-01-30T20:36:19.916Z,18.25
2023-01-30T20:38:49.004Z,17.08
2023-01-30T20:41:21.695Z,18.17
2023-01-30T20:43:51.185Z,18.17
2023-01-30T20:46:23.184Z,17.23
2023-01-30T20:48:54.130Z,17.30
2023-01-30T20:51:27.437Z,18.65
2023-01-30T20:53:57.124Z,19.15
2023-01-30T20:56:26.397Z,18.02
2023-01-30T20:58:53.407Z,16.88
2023-01-30T21:01:23.659Z,17.38
2023-01-30T21:03:52.942Z,19.42
2023-01-30T21:06:41.737Z,16.88
2023-01-30T21:09:11.302Z,17.75
2023-01-30T21:11:38.718Z,16.27
2023-01-30T21:14:05.869Z,14.85
2023-01-30T21:16:34.910Z,14.10
2023-01-30T21:19:05.506Z,13.88
2023-01-30T21:21:37.091Z,14.52
2023-01-30T21:24:08.393Z,14.82
2023-01-30T21:26:38.322Z,13.48
2023-01-30T21:29:08.314Z,14.75
2023-01-30T21:31:37.492Z,13.32
2023-01-30T21:34:04.951Z,15.48
2023-01-30T21:36:32.452Z,15.38
2023-01-30T21:39:17.907Z,15.52
2023-01-30T21:42:04.261Z,15.27
2023-01-30T21:44:39.132Z,15.82
2023-01-30T21:47:07.050Z,15.80
2023-01-30T21:49:34.720Z,13.70
2023-01-30T21:52:01.665Z,14.60
2023-01-30T21:54:28.764Z,14.40
2023-01-30T21:56:55.778Z,14.40
2023-01-30T21:59:22.736Z,15.13
2023-01-30T22:01:49.782Z,15.10
2023-01-30T22:04:16.866Z,13.68
2023-01-30T22:06:44.200Z,15.15
2023-01-30T22:09:15.635Z,15.88
2023-01-30T22:11:43.100Z,15.07
2023-01-30T22:14:13.351Z,15.95
2023-01-30T22:16:41.126Z,15.90
2023-01-30T22:19:08.687Z,14.40
2023-01-30T22:21:39.922Z,16.60
2023-01-30T22:24:08.749Z,15.95
2023-01-30T22:26:36.728Z,16.77
2023-01-30T22:29:05.252Z,17.77
2023-01-30T22:31:35.418Z,15.57
2023-01-30T22:34:04.372Z,15.10
2023-01-30T22:36:33.241Z,14.70
2023-01-30T22:39:00.491Z,17.50
2023-01-30T22:41:30.730Z,15.63
2023-01-30T22:43:59.531Z,16.05
2023-01-30T22:46:29.118Z,18.05
2023-01-30T22:48:56.117Z,16.27
2023-01-30T22:51:28.743Z,16.38
2023-01-30T22:53:59.314Z,16.17
2023-01-30T22:56:29.062Z,17.10
2023-01-30T22:58:56.680Z,16.70
2023-01-30T23:01:28.934Z,17.90
2023-01-30T23:03:58.916Z,17.80
2023-01-30T23:06:26.765Z,18.63
2023-01-30T23:08:55.521Z,17.73
2023-01-30T23:11:29.550Z,19.02
2023-01-30T23:13:59.455Z,17.63
2023-01-30T23:16:27.891Z,19.45
2023-01-30T23:19:01.643Z,18.25
2023-01-30T23:21:31.811Z,20.30
2023-01-30T23:24:00.819Z,19.73
2023-01-30T23:26:32.571Z,19.63
2023-01-30T23:29:01.429Z,20.17
2023-01-30T23:31:29.349Z,21.45
2023-01-30T23:33:58.615Z,19.60
2023-01-30T23:36:26.088Z,19.35
2023-01-30T23:38:55.239Z,19.90
2023-01-30T23:41:26.926Z,20.55
2023-01-30T23:43:53.891Z,21.00
2023-01-30T23:46:47.393Z,22.35
2023-01-30T23:49:15.220Z,22.58
2023-01-30T23:51:44.303Z,25.92
2023-01-30T23:54:12.910Z,23.67
2023-01-30T23:56:42.673Z,25.23
2023-01-30T23:59:10.952Z,25.45
